createdAt,value
2023-02-19T00:00:37.443Z,1009.87
2023-02-19T00:01:38.135Z,1009.91
2023-02-19T00:02:37.433Z,1009.86
2023-02-19T00:03:37.446Z,1009.94
2023-02-19T00:04:37.463Z,1009.92
2023-02-19T00:05:37.372Z,1009.93
2023-02-19T00:06:37.353Z,1009.98
2023-02-19T00:07:38.323Z,1009.96
2023-02-19T00:08:37.333Z,1009.92
2023-02-19T00:09:37.327Z,1009.85
2023-02-19T00:10:37.321Z,1010.01
2023-02-19T00:11:38.246Z,1009.91
2023-02-19T00:12:37.324Z,1009.94
2023-02-19T00:13:37.284Z,1009.87
2023-02-19T00:14:37.976Z,1009.90
2023-02-19T00:15:37.290Z,1009.90
2023-02-19T00:16:38.095Z,1009.82
2023-02-19T00:17:37.236Z,1009.87
2023-02-19T00:18:37.264Z,1009.82
2023-02-19T00:19:37.397Z,1009.86
2023-02-19T00:20:37.211Z,1009.86
2023-02-19T00:21:37.195Z,1009.81
2023-02-19T00:22:37.206Z,1009.81
2023-02-19T00:23:37.163Z,1009.80
2023-02-19T00:24:37.914Z,1009.78
2023-02-19T00:25:37.143Z,1009.83
2023-02-19T00:26:37.142Z,1009.77
2023-02-19T00:27:37.123Z,1009.78
2023-02-19T00:28:37.117Z,1009.82
2023-02-19T00:29:37.128Z,1009.76
2023-02-19T00:30:37.097Z,1009.72
2023-02-19T00:31:37.164Z,1009.78
2023-02-19T00:32:37.081Z,1009.77
2023-02-19T00:33:37.058Z,1009.79
2023-02-19T00:34:37.076Z,1009.81
2023-02-19T00:35:37.149Z,1009.81
2023-02-19T00:36:37.041Z,1009.80
2023-02-19T00:37:37.016Z,1009.84
2023-02-19T00:38:37.009Z,1009.82
2023-02-19T00:39:36.988Z,1009.83
2023-02-19T00:40:37.018Z,1009.77
2023-02-19T00:41:36.971Z,1009.74
2023-02-19T00:42:36.997Z,1009.79
2023-02-19T00:43:36.948Z,1009.77
2023-02-19T00:44:36.947Z,1009.75
2023-02-19T00:45:36.921Z,1009.71
2023-02-19T00:46:36.945Z,1009.72
2023-02-19T00:47:37.073Z,1009.81
2023-02-19T00:48:36.890Z,1009.88
2023-02-19T00:49:36.902Z,1009.83
2023-02-19T00:50:37.822Z,1009.83
2023-02-19T00:51:36.869Z,1009.79
2023-02-19T00:52:36.880Z,1009.84
2023-02-19T00:53:36.855Z,1009.75
2023-02-19T00:54:36.829Z,1009.78
2023-02-19T00:55:36.832Z,1009.83
2023-02-19T00:56:37.633Z,1009.83
2023-02-19T00:57:36.800Z,1009.86
2023-02-19T00:58:36.784Z,1009.86
2023-02-19T00:59:36.768Z,1009.86
2023-02-19T01:00:36.782Z,1009.87
2023-02-19T01:01:36.782Z,1009.83
2023-02-19T01:02:36.742Z,1009.94
2023-02-19T01:03:36.725Z,1009.81
2023-02-19T01:04:43.873Z,1009.78
2023-02-19T01:05:36.702Z,1009.76
2023-02-19T01:06:36.708Z,1009.80
2023-02-19T01:07:36.708Z,1009.80
2023-02-19T01:08:37.467Z,1009.82
2023-02-19T01:09:36.661Z,1009.78
2023-02-19T01:10:36.654Z,1009.91
2023-02-19T01:11:36.651Z,1009.81
2023-02-19T01:12:36.705Z,1009.79
2023-02-19T01:13:36.645Z,1009.80
2023-02-19T01:14:36.663Z,1009.86
2023-02-19T01:15:36.586Z,1009.76
2023-02-19T01:16:36.584Z,1009.78
2023-02-19T01:17:36.566Z,1009.81
2023-02-19T01:18:36.578Z,1009.81
2023-02-19T01:19:36.574Z,1009.78
2023-02-19T01:20:36.537Z,1009.76
2023-02-19T01:21:36.544Z,1009.79
2023-02-19T01:22:36.518Z,1009.74
2023-02-19T01:23:36.521Z,1009.78
2023-02-19T01:24:36.497Z,1009.78
2023-02-19T01:25:36.508Z,1009.77
2023-02-19T01:26:36.469Z,1009.77
2023-02-19T01:27:36.467Z,1009.79
2023-02-19T01:28:36.440Z,1009.87
2023-02-19T01:29:36.433Z,1009.82
2023-02-19T01:30:36.436Z,1009.81
2023-02-19T01:31:36.505Z,1009.79
2023-02-19T01:32:36.412Z,1009.79
2023-02-19T01:33:36.388Z,1009.83
2023-02-19T01:34:36.406Z,1009.72
2023-02-19T01:35:36.362Z,1009.78
2023-02-19T01:36:36.356Z,1009.69
2023-02-19T01:37:36.341Z,1009.78
2023-02-19T01:38:37.338Z,1009.79
2023-02-19T01:39:36.360Z,1009.76
2023-02-19T01:40:36.322Z,1009.79
2023-02-19T01:41:36.307Z,1009.85
2023-02-19T01:42:36.561Z,1009.88
2023-02-19T01:43:36.290Z,1009.79
2023-02-19T01:44:36.290Z,1009.81
2023-02-19T01:45:36.260Z,1009.90
2023-02-19T01:46:36.291Z,1009.87
2023-02-19T01:47:36.240Z,1009.82
2023-02-19T01:48:36.222Z,1009.87
2023-02-19T01:49:37.935Z,1009.90
2023-02-19T01:50:36.208Z,1009.85
2023-02-19T01:51:36.195Z,1009.73
2023-02-19T01:52:36.199Z,1009.82
2023-02-19T01:53:36.173Z,1009.90
2023-02-19T01:54:36.196Z,1009.82
2023-02-19T01:55:36.155Z,1009.79
2023-02-19T01:56:36.132Z,1009.73
2023-02-19T01:57:36.132Z,1009.69
2023-02-19T01:58:36.110Z,1009.74
2023-02-19T01:59:36.105Z,1009.80
2023-02-19T02:00:36.174Z,1009.80
2023-02-19T02:01:36.102Z,1009.81
2023-02-19T02:02:36.064Z,1009.82
2023-02-19T02:03:36.065Z,1009.78
2023-02-19T02:04:36.051Z,1009.79
2023-02-19T02:05:36.072Z,1009.84
2023-02-19T02:06:36.021Z,1009.81
2023-02-19T02:07:36.020Z,1009.72
2023-02-19T02:08:36.000Z,1009.73
2023-02-19T02:09:35.988Z,1009.79
2023-02-19T02:10:36.005Z,1009.73
2023-02-19T02:11:35.965Z,1009.75
2023-02-19T02:12:35.982Z,1009.80
2023-02-19T02:13:35.945Z,1009.78
2023-02-19T02:14:35.946Z,1009.74
2023-02-19T02:15:35.952Z,1009.78
2023-02-19T02:16:35.914Z,1009.71
2023-02-19T02:17:35.933Z,1009.76
2023-02-19T02:18:35.891Z,1009.84
2023-02-19T02:19:35.877Z,1009.85
2023-02-19T02:20:35.878Z,1009.81
2023-02-19T02:21:35.864Z,1009.83
2023-02-19T02:22:35.979Z,1009.85
2023-02-19T02:23:35.844Z,1009.79
2023-02-19T02:24:35.827Z,1009.90
2023-02-19T02:25:35.819Z,1009.73
2023-02-19T02:26:35.812Z,1009.83
2023-02-19T02:27:35.798Z,1009.76
2023-02-19T02:28:35.824Z,1009.75
2023-02-19T02:29:35.779Z,1009.79
2023-02-19T02:30:35.758Z,1009.83
2023-02-19T02:31:35.837Z,1009.75
2023-02-19T02:32:35.761Z,1009.73
2023-02-19T02:33:35.750Z,1009.78
2023-02-19T02:34:35.741Z,1009.74
2023-02-19T02:35:35.712Z,1009.72
2023-02-19T02:36:35.702Z,1009.73
2023-02-19T02:37:35.690Z,1009.72
2023-02-19T02:38:35.700Z,1009.74
2023-02-19T02:39:35.676Z,1009.62
2023-02-19T02:40:35.655Z,1009.69
2023-02-19T02:41:35.640Z,1009.63
2023-02-19T02:42:35.631Z,1009.66
2023-02-19T02:43:35.642Z,1009.59
2023-02-19T02:44:35.644Z,1009.64
2023-02-19T02:45:35.643Z,1009.62
2023-02-19T02:46:35.588Z,1009.59
2023-02-19T02:47:35.579Z,1009.59
2023-02-19T02:48:35.572Z,1009.59
2023-02-19T02:49:35.578Z,1009.63
2023-02-19T02:50:35.543Z,1009.65
2023-02-19T02:51:35.543Z,1009.66
2023-02-19T02:52:35.515Z,1009.63
2023-02-19T02:53:35.502Z,1009.67
2023-02-19T02:54:35.511Z,1009.79
2023-02-19T02:55:35.490Z,1009.83
2023-02-19T02:56:35.475Z,1009.90
2023-02-19T02:57:35.470Z,1009.80
2023-02-19T02:58:35.449Z,1009.78
2023-02-19T02:59:35.473Z,1009.81
2023-02-19T03:00:35.421Z,1009.81
2023-02-19T03:01:35.423Z,1009.71
2023-02-19T03:02:35.404Z,1009.83
2023-02-19T03:03:35.392Z,1009.80
2023-02-19T03:04:35.381Z,1009.87
2023-02-19T03:05:35.392Z,1009.87
2023-02-19T03:06:35.368Z,1009.89
2023-02-19T03:07:35.358Z,1009.91
2023-02-19T03:08:35.344Z,1009.92
2023-02-19T03:09:35.324Z,1009.93
2023-02-19T03:10:35.332Z,1009.91
2023-02-19T03:11:35.304Z,1009.96
2023-02-19T03:12:35.293Z,1009.87
2023-02-19T03:13:35.287Z,1009.87
2023-02-19T03:14:35.286Z,1009.92
2023-02-19T03:15:35.284Z,1009.87
2023-02-19T03:16:35.311Z,1010.02
2023-02-19T03:17:35.247Z,1009.93
2023-02-19T03:18:35.234Z,1009.94
2023-02-19T03:19:35.221Z,1009.92
2023-02-19T03:20:35.243Z,1009.86
2023-02-19T03:21:35.204Z,1010.00
2023-02-19T03:22:35.190Z,1010.03
2023-02-19T03:23:35.173Z,1010.06
2023-02-19T03:24:35.177Z,1010.04
2023-02-19T03:25:35.178Z,1010.01
2023-02-19T03:26:35.169Z,1010.04
2023-02-19T03:27:35.143Z,1010.04
2023-02-19T03:28:35.122Z,1010.15
2023-02-19T03:29:35.129Z,1010.00
2023-02-19T03:30:35.186Z,1010.06
2023-02-19T03:31:35.203Z,1010.09
2023-02-19T03:32:35.082Z,1010.14
2023-02-19T03:33:35.071Z,1010.09
2023-02-19T03:34:35.055Z,1010.13
2023-02-19T03:35:35.054Z,1010.10
2023-02-19T03:36:35.058Z,1010.16
2023-02-19T03:37:35.027Z,1010.20
2023-02-19T03:38:35.010Z,1010.12
2023-02-19T03:39:35.020Z,1010.14
2023-02-19T03:40:34.990Z,1010.15
2023-02-19T03:41:34.995Z,1010.12
2023-02-19T03:42:34.992Z,1010.13
2023-02-19T03:43:34.968Z,1010.16
2023-02-19T03:44:34.964Z,1010.23
2023-02-19T03:45:34.997Z,1010.25
2023-02-19T03:46:34.927Z,1010.22
2023-02-19T03:47:34.942Z,1010.18
2023-02-19T03:48:34.918Z,1010.28
2023-02-19T03:49:34.895Z,1010.23
2023-02-19T03:50:34.899Z,1010.16
2023-02-19T03:51:34.881Z,1010.25
2023-02-19T03:52:34.883Z,1010.28
2023-02-19T03:53:34.864Z,1010.33
2023-02-19T03:54:34.834Z,1010.33
2023-02-19T03:55:34.840Z,1010.33
2023-02-19T03:56:34.823Z,1010.34
2023-02-19T03:57:34.850Z,1010.35
2023-02-19T03:58:34.806Z,1010.37
2023-02-19T03:59:34.825Z,1010.31
2023-02-19T04:00:34.775Z,1010.36
2023-02-19T04:01:34.771Z,1010.40
2023-02-19T04:02:34.815Z,1010.37
2023-02-19T04:03:34.800Z,1010.36
2023-02-19T04:04:34.795Z,1010.41
2023-02-19T04:05:34.744Z,1010.45
2023-02-19T04:06:34.716Z,1010.53
2023-02-19T04:07:34.709Z,1010.48
2023-02-19T04:08:34.721Z,1010.40
2023-02-19T04:09:34.688Z,1010.50
2023-02-19T04:10:34.699Z,1010.47
2023-02-19T04:11:34.668Z,1010.52
2023-02-19T04:12:34.660Z,1010.53
2023-02-19T04:13:34.669Z,1010.52
2023-02-19T04:14:34.641Z,1010.60
2023-02-19T04:15:34.632Z,1010.54
2023-02-19T04:16:34.717Z,1010.55
2023-02-19T04:17:34.608Z,1010.49
2023-02-19T04:18:34.613Z,1010.62
2023-02-19T04:19:34.588Z,1010.63
2023-02-19T04:20:34.600Z,1010.57
2023-02-19T04:21:34.568Z,1010.61
2023-02-19T04:22:34.550Z,1010.61
2023-02-19T04:23:34.561Z,1010.58
2023-02-19T04:24:34.531Z,1010.65
2023-02-19T04:25:34.521Z,1010.57
2023-02-19T04:26:34.508Z,1010.65
2023-02-19T04:27:34.501Z,1010.73
2023-02-19T04:28:34.508Z,1010.72
2023-02-19T04:29:34.483Z,1010.72
2023-02-19T04:30:34.543Z,1010.69
2023-02-19T04:31:34.481Z,1010.63
2023-02-19T04:32:34.444Z,1010.65
2023-02-19T04:33:34.439Z,1010.63
2023-02-19T04:34:34.448Z,1010.67
2023-02-19T04:35:34.399Z,1010.72
2023-02-19T04:36:34.405Z,1010.78
2023-02-19T04:37:34.388Z,1010.79
2023-02-19T04:38:34.376Z,1010.92
2023-02-19T04:39:34.378Z,1010.85
2023-02-19T04:40:34.358Z,1010.90
2023-02-19T04:41:34.347Z,1010.81
2023-02-19T04:42:34.335Z,1010.92
2023-02-19T04:43:34.307Z,1010.89
2023-02-19T04:44:34.315Z,1010.95
2023-02-19T04:45:34.326Z,1010.98
2023-02-19T04:46:34.293Z,1010.92
2023-02-19T04:47:34.286Z,1011.03
2023-02-19T04:48:34.273Z,1011.00
2023-02-19T04:49:34.257Z,1011.05
2023-02-19T04:50:34.247Z,1011.06
2023-02-19T04:51:34.248Z,1011.09
2023-02-19T04:52:34.228Z,1011.02
2023-02-19T04:53:34.216Z,1011.13
2023-02-19T04:54:34.204Z,1011.12
2023-02-19T04:55:34.225Z,1011.15
2023-02-19T04:56:34.183Z,1011.12
2023-02-19T04:57:34.169Z,1011.09
2023-02-19T04:58:34.166Z,1011.16
2023-02-19T04:59:34.150Z,1011.12
2023-02-19T05:00:34.239Z,1011.14
2023-02-19T05:01:34.172Z,1011.17
2023-02-19T05:02:34.122Z,1011.20
2023-02-19T05:03:34.098Z,1011.16
2023-02-19T05:04:34.095Z,1011.16
2023-02-19T05:05:34.088Z,1011.27
2023-02-19T05:06:34.084Z,1011.25
2023-02-19T05:07:34.089Z,1011.30
2023-02-19T05:08:34.054Z,1011.24
2023-02-19T05:09:34.036Z,1011.26
2023-02-19T05:10:34.026Z,1011.36
2023-02-19T05:11:34.039Z,1011.40
2023-02-19T05:12:34.036Z,1011.40
2023-02-19T05:13:34.060Z,1011.39
2023-02-19T05:14:33.992Z,1011.36
2023-02-19T05:15:33.987Z,1011.46
2023-02-19T05:16:33.957Z,1011.49
2023-02-19T05:17:33.949Z,1011.44
2023-02-19T05:18:33.958Z,1011.49
2023-02-19T05:19:33.946Z,1011.50
2023-02-19T05:20:33.919Z,1011.50
2023-02-19T05:21:33.914Z,1011.49
2023-02-19T05:22:33.907Z,1011.53
2023-02-19T05:23:33.908Z,1011.58
2023-02-19T05:24:33.887Z,1011.58
2023-02-19T05:25:33.870Z,1011.57
2023-02-19T05:26:33.866Z,1011.59
2023-02-19T05:27:33.840Z,1011.61
2023-02-19T05:28:33.869Z,1011.60
2023-02-19T05:29:33.848Z,1011.57
2023-02-19T05:30:33.827Z,1011.61
2023-02-19T05:31:33.945Z,1011.66
2023-02-19T05:32:33.792Z,1011.58
2023-02-19T05:33:33.791Z,1011.68
2023-02-19T05:34:33.785Z,1011.69
2023-02-19T05:35:33.793Z,1011.73
2023-02-19T05:36:33.754Z,1011.78
2023-02-19T05:37:33.772Z,1011.78
2023-02-19T05:38:33.736Z,1011.74
2023-02-19T05:39:33.718Z,1011.75
2023-02-19T05:40:33.741Z,1011.83
2023-02-19T05:41:33.702Z,1011.75
2023-02-19T05:42:33.681Z,1011.82
2023-02-19T05:43:33.673Z,1011.74
2023-02-19T05:44:33.673Z,1011.80
2023-02-19T05:45:33.659Z,1011.77
2023-02-19T05:46:33.734Z,1011.87
2023-02-19T05:47:33.634Z,1011.79
2023-02-19T05:48:33.630Z,1011.84
2023-02-19T05:49:33.621Z,1011.79
2023-02-19T05:50:33.603Z,1011.81
2023-02-19T05:51:33.626Z,1011.79
2023-02-19T05:52:33.629Z,1011.84
2023-02-19T05:53:33.561Z,1011.84
2023-02-19T05:54:33.571Z,1011.83
2023-02-19T05:55:33.568Z,1011.89
2023-02-19T05:56:33.531Z,1011.95
2023-02-19T05:57:33.543Z,1011.92
2023-02-19T05:58:33.551Z,1011.90
2023-02-19T05:59:33.510Z,1011.96
2023-02-19T06:00:33.492Z,1011.94
2023-02-19T06:01:33.482Z,1011.94
2023-02-19T06:02:33.509Z,1012.00
2023-02-19T06:03:33.475Z,1011.98
2023-02-19T06:04:33.473Z,1012.00
2023-02-19T06:05:33.450Z,1012.02
2023-02-19T06:06:33.433Z,1012.04
2023-02-19T06:07:33.440Z,1012.07
2023-02-19T06:08:33.414Z,1011.95
2023-02-19T06:09:33.401Z,1011.99
2023-02-19T06:10:33.410Z,1011.98
2023-02-19T06:11:33.394Z,1012.06
2023-02-19T06:12:33.375Z,1012.07
2023-02-19T06:13:33.369Z,1012.09
2023-02-19T06:14:33.379Z,1012.08
2023-02-19T06:15:33.340Z,1012.10
2023-02-19T06:16:33.341Z,1012.11
2023-02-19T06:17:33.344Z,1012.13
2023-02-19T06:18:33.309Z,1012.15
2023-02-19T06:19:33.314Z,1012.19
2023-02-19T06:20:33.285Z,1012.18
2023-02-19T06:21:33.282Z,1012.22
2023-02-19T06:22:33.264Z,1012.27
2023-02-19T06:23:33.254Z,1012.25
2023-02-19T06:24:33.240Z,1012.23
2023-02-19T06:25:33.255Z,1012.26
2023-02-19T06:26:33.231Z,1012.26
2023-02-19T06:27:33.222Z,1012.22
2023-02-19T06:28:33.204Z,1012.27
2023-02-19T06:29:33.204Z,1012.29
2023-02-19T06:30:33.246Z,1012.28
2023-02-19T06:31:33.268Z,1012.27
2023-02-19T06:32:33.231Z,1012.33
2023-02-19T06:33:33.156Z,1012.36
2023-02-19T06:34:33.145Z,1012.48
2023-02-19T06:35:33.152Z,1012.42
2023-02-19T06:36:33.117Z,1012.39
2023-02-19T06:37:33.116Z,1012.39
2023-02-19T06:38:33.131Z,1012.43
2023-02-19T06:39:33.129Z,1012.46
2023-02-19T06:40:33.099Z,1012.43
2023-02-19T06:41:33.070Z,1012.41
2023-02-19T06:42:33.089Z,1012.51
2023-02-19T06:43:33.042Z,1012.50
2023-02-19T06:44:33.031Z,1012.58
2023-02-19T06:45:33.034Z,1012.53
2023-02-19T06:46:33.030Z,1012.66
2023-02-19T06:47:33.019Z,1012.58
2023-02-19T06:48:33.017Z,1012.60
2023-02-19T06:49:33.011Z,1012.54
2023-02-19T06:50:32.971Z,1012.65
2023-02-19T06:51:33.008Z,1012.70
2023-02-19T06:52:32.949Z,1012.72
2023-02-19T06:53:32.949Z,1012.78
2023-02-19T06:54:32.960Z,1012.87
2023-02-19T06:55:32.922Z,1012.82
2023-02-19T06:56:32.914Z,1012.78
2023-02-19T06:57:32.910Z,1012.87
2023-02-19T06:58:32.896Z,1012.89
2023-02-19T06:59:32.915Z,1012.91
2023-02-19T07:00:32.903Z,1012.88
2023-02-19T07:01:32.870Z,1012.87
2023-02-19T07:02:32.842Z,1013.00
2023-02-19T07:03:32.854Z,1012.95
2023-02-19T07:04:32.843Z,1013.02
2023-02-19T07:05:32.813Z,1013.02
2023-02-19T07:06:32.802Z,1013.09
2023-02-19T07:07:32.796Z,1013.07
2023-02-19T07:08:32.791Z,1013.11
2023-02-19T07:09:32.787Z,1013.11
2023-02-19T07:10:32.789Z,1013.16
2023-02-19T07:11:32.756Z,1013.17
2023-02-19T07:12:32.738Z,1013.19
2023-02-19T07:13:32.720Z,1013.22
2023-02-19T07:14:32.714Z,1013.26
2023-02-19T07:15:32.728Z,1013.22
2023-02-19T07:16:32.810Z,1013.28
2023-02-19T07:17:32.701Z,1013.27
2023-02-19T07:18:32.674Z,1013.30
2023-02-19T07:19:32.707Z,1013.32
2023-02-19T07:20:32.657Z,1013.25
2023-02-19T07:21:32.666Z,1013.34
2023-02-19T07:22:32.640Z,1013.30
2023-02-19T07:23:32.619Z,1013.33
2023-02-19T07:24:32.623Z,1013.34
2023-02-19T07:25:32.626Z,1013.40
2023-02-19T07:26:32.588Z,1013.39
2023-02-19T07:27:32.593Z,1013.45
2023-02-19T07:28:32.568Z,1013.44
2023-02-19T07:29:32.560Z,1013.50
2023-02-19T07:30:32.574Z,1013.51
2023-02-19T07:31:32.631Z,1013.53
2023-02-19T07:32:32.518Z,1013.54
2023-02-19T07:33:32.528Z,1013.51
2023-02-19T07:34:32.538Z,1013.53
2023-02-19T07:35:32.488Z,1013.57
2023-02-19T07:36:32.498Z,1013.60
2023-02-19T07:37:32.479Z,1013.60
2023-02-19T07:38:32.460Z,1013.65
2023-02-19T07:39:32.478Z,1013.66
2023-02-19T07:40:32.441Z,1013.71
2023-02-19T07:41:32.453Z,1013.69
2023-02-19T07:42:32.444Z,1013.73
2023-02-19T07:43:32.407Z,1013.72
2023-02-19T07:44:32.410Z,1013.75
2023-02-19T07:45:32.417Z,1013.77
2023-02-19T07:46:32.407Z,1013.74
2023-02-19T07:47:32.365Z,1013.74
2023-02-19T07:48:32.355Z,1013.81
2023-02-19T07:49:32.342Z,1013.82
2023-02-19T07:50:32.329Z,1013.86
2023-02-19T07:51:32.335Z,1013.85
2023-02-19T07:52:32.327Z,1013.90
2023-02-19T07:53:32.309Z,1013.93
2023-02-19T07:54:32.304Z,1014.02
2023-02-19T07:55:32.279Z,1014.02
2023-02-19T07:56:32.269Z,1014.08
2023-02-19T07:57:32.295Z,1014.07
2023-02-19T07:58:32.291Z,1014.11
2023-02-19T07:59:32.245Z,1014.13
2023-02-19T08:00:32.226Z,1014.15
2023-02-19T08:01:32.272Z,1014.19
2023-02-19T08:02:32.206Z,1014.19
2023-02-19T08:03:32.302Z,1014.24
2023-02-19T08:04:32.224Z,1014.24
2023-02-19T08:05:32.178Z,1014.28
2023-02-19T08:06:32.158Z,1014.30
2023-02-19T08:07:32.158Z,1014.38
2023-02-19T08:08:32.157Z,1014.47
2023-02-19T08:09:32.143Z,1014.51
2023-02-19T08:10:32.148Z,1014.54
2023-02-19T08:11:32.106Z,1014.58
2023-02-19T08:12:32.096Z,1014.62
2023-02-19T08:13:32.088Z,1014.62
2023-02-19T08:14:32.086Z,1014.57
2023-02-19T08:15:32.069Z,1014.58
2023-02-19T08:16:42.600Z,1014.58
2023-02-19T08:17:33.046Z,1014.60
2023-02-19T08:18:32.036Z,1014.55
2023-02-19T08:19:32.039Z,1014.54
2023-02-19T08:20:32.017Z,1014.55
2023-02-19T08:21:34.212Z,1014.55
2023-02-19T08:22:32.038Z,1014.57
2023-02-19T08:23:31.977Z,1014.61
2023-02-19T08:24:31.979Z,1014.63
2023-02-19T08:25:31.966Z,1014.63
2023-02-19T08:26:31.955Z,1014.66
2023-02-19T08:27:31.965Z,1014.58
2023-02-19T08:28:31.925Z,1014.59
2023-02-19T08:29:31.949Z,1014.60
2023-02-19T08:30:32.015Z,1014.64
2023-02-19T08:31:32.061Z,1014.67
2023-02-19T08:32:31.898Z,1014.68
2023-02-19T08:33:31.875Z,1014.66
2023-02-19T08:34:31.888Z,1014.67
2023-02-19T08:35:31.887Z,1014.63
2023-02-19T08:36:31.877Z,1014.64
2023-02-19T08:37:31.828Z,1014.67
2023-02-19T08:38:31.851Z,1014.74
2023-02-19T08:39:31.830Z,1014.72
2023-02-19T08:40:31.805Z,1014.70
2023-02-19T08:41:31.798Z,1014.72
2023-02-19T08:42:31.788Z,1014.79
2023-02-19T08:43:31.769Z,1014.81
2023-02-19T08:44:31.790Z,1014.82
2023-02-19T08:45:31.743Z,1014.81
2023-02-19T08:46:33.496Z,1014.89
2023-02-19T08:47:31.731Z,1014.89
2023-02-19T08:48:31.721Z,1014.89
2023-02-19T08:49:31.724Z,1014.91
2023-02-19T08:50:31.715Z,1014.95
2023-02-19T08:51:31.690Z,1014.95
2023-02-19T08:52:31.670Z,1014.98
2023-02-19T08:53:31.668Z,1015.01
2023-02-19T08:54:31.665Z,1014.99
2023-02-19T08:55:31.637Z,1015.12
2023-02-19T08:56:31.649Z,1015.12
2023-02-19T08:57:31.620Z,1015.18
2023-02-19T08:58:31.626Z,1015.22
2023-02-19T08:59:31.607Z,1015.25
2023-02-19T09:00:31.576Z,1015.26
2023-02-19T09:01:31.634Z,1015.32
2023-02-19T09:02:31.576Z,1015.25
2023-02-19T09:03:31.556Z,1015.29
2023-02-19T09:04:31.633Z,1015.32
2023-02-19T09:05:31.536Z,1015.33
2023-02-19T09:06:31.517Z,1015.33
2023-02-19T09:07:31.505Z,1015.31
2023-02-19T09:08:31.508Z,1015.33
2023-02-19T09:09:31.516Z,1015.39
2023-02-19T09:10:31.475Z,1015.35
2023-02-19T09:11:31.477Z,1015.48
2023-02-19T09:12:31.460Z,1015.44
2023-02-19T09:13:31.461Z,1015.45
2023-02-19T09:14:31.476Z,1015.41
2023-02-19T09:15:31.454Z,1015.47
2023-02-19T09:16:31.414Z,1015.50
2023-02-19T09:17:31.400Z,1015.53
2023-02-19T09:18:31.402Z,1015.59
2023-02-19T09:19:31.387Z,1015.56
2023-02-19T09:20:31.368Z,1015.56
2023-02-19T09:21:31.388Z,1015.61
2023-02-19T09:22:31.353Z,1015.64
2023-02-19T09:23:31.346Z,1015.70
2023-02-19T09:24:31.338Z,1015.70
2023-02-19T09:25:31.328Z,1015.66
2023-02-19T09:26:31.334Z,1015.72
2023-02-19T09:27:31.298Z,1015.67
2023-02-19T09:28:31.298Z,1015.72
2023-02-19T09:29:31.313Z,1015.72
2023-02-19T09:30:31.341Z,1015.74
2023-02-19T09:31:31.323Z,1015.78
2023-02-19T09:32:31.242Z,1015.77
2023-02-19T09:33:31.242Z,1015.82
2023-02-19T09:34:31.299Z,1015.77
2023-02-19T09:35:31.212Z,1015.78
2023-02-19T09:36:31.211Z,1015.82
2023-02-19T09:37:33.167Z,1015.85
2023-02-19T09:38:31.179Z,1015.84
2023-02-19T09:39:31.206Z,1015.89
2023-02-19T09:40:31.173Z,1015.91
2023-02-19T09:41:31.149Z,1015.88
2023-02-19T09:42:31.149Z,1015.91
2023-02-19T09:43:31.142Z,1016.00
2023-02-19T09:44:31.212Z,1016.09
2023-02-19T09:45:31.111Z,1016.10
2023-02-19T09:46:31.209Z,1016.17
2023-02-19T09:47:31.084Z,1016.14
2023-02-19T09:48:31.083Z,1016.18
2023-02-19T09:49:31.086Z,1016.26
2023-02-19T09:50:31.093Z,1016.25
2023-02-19T09:51:31.054Z,1016.29
2023-02-19T09:52:31.032Z,1016.31
2023-02-19T09:53:31.027Z,1016.27
2023-02-19T09:54:31.107Z,1016.28
2023-02-19T09:55:31.003Z,1016.26
2023-02-19T09:56:31.010Z,1016.33
2023-02-19T09:57:30.980Z,1016.36
2023-02-19T09:58:30.987Z,1016.36
2023-02-19T09:59:30.960Z,1016.36
2023-02-19T10:00:30.950Z,1016.38
2023-02-19T10:01:30.984Z,1016.38
2023-02-19T10:02:30.920Z,1016.38
2023-02-19T10:03:30.934Z,1016.47
2023-02-19T10:04:30.921Z,1016.45
2023-02-19T10:05:30.892Z,1016.55
2023-02-19T10:06:30.911Z,1016.54
2023-02-19T10:07:30.889Z,1016.57
2023-02-19T10:08:30.852Z,1016.64
2023-02-19T10:09:30.845Z,1016.64
2023-02-19T10:10:30.840Z,1016.58
2023-02-19T10:11:30.830Z,1016.63
2023-02-19T10:12:30.838Z,1016.68
2023-02-19T10:13:30.811Z,1016.69
2023-02-19T10:14:30.794Z,1016.73
2023-02-19T10:15:30.779Z,1016.79
2023-02-19T10:16:30.781Z,1016.77
2023-02-19T10:17:30.780Z,1016.83
2023-02-19T10:18:30.749Z,1016.82
2023-02-19T10:19:30.732Z,1016.75
2023-02-19T10:20:30.719Z,1016.78
2023-02-19T10:21:30.717Z,1016.74
2023-02-19T10:22:30.731Z,1016.77
2023-02-19T10:23:30.694Z,1016.80
2023-02-19T10:24:30.691Z,1016.78
2023-02-19T10:25:30.662Z,1016.75
2023-02-19T10:26:30.662Z,1016.73
2023-02-19T10:27:30.668Z,1016.72
2023-02-19T10:28:30.678Z,1016.79
2023-02-19T10:29:30.617Z,1016.86
2023-02-19T10:30:30.676Z,1016.91
2023-02-19T10:31:30.695Z,1016.86
2023-02-19T10:32:30.615Z,1016.89
2023-02-19T10:33:30.587Z,1016.89
2023-02-19T10:34:30.635Z,1016.89
2023-02-19T10:35:30.574Z,1016.92
2023-02-19T10:36:32.134Z,1016.97
2023-02-19T10:37:30.532Z,1016.92
2023-02-19T10:38:30.540Z,1016.93
2023-02-19T10:39:30.536Z,1016.90
2023-02-19T10:40:30.499Z,1016.93
2023-02-19T10:41:30.489Z,1016.91
2023-02-19T10:42:30.476Z,1016.97
2023-02-19T10:43:30.468Z,1017.04
2023-02-19T10:44:30.496Z,1017.13
2023-02-19T10:45:30.478Z,1017.13
2023-02-19T10:46:30.512Z,1017.12
2023-02-19T10:47:30.430Z,1017.13
2023-02-19T10:48:30.418Z,1017.10
2023-02-19T10:49:30.425Z,1017.11
2023-02-19T10:50:30.719Z,1017.16
2023-02-19T10:51:30.378Z,1017.18
2023-02-19T10:52:30.378Z,1017.19
2023-02-19T10:53:30.368Z,1017.15
2023-02-19T10:54:30.407Z,1017.13
2023-02-19T10:55:30.361Z,1017.15
2023-02-19T10:56:30.356Z,1017.12
2023-02-19T10:57:30.376Z,1017.13
2023-02-19T10:58:30.320Z,1017.15
2023-02-19T10:59:30.297Z,1017.20
2023-02-19T11:00:30.381Z,1017.19
2023-02-19T11:01:30.316Z,1017.21
2023-02-19T11:02:31.008Z,1017.23
2023-02-19T11:03:30.242Z,1017.23
2023-02-19T11:04:30.286Z,1017.18
2023-02-19T11:05:30.232Z,1017.18
2023-02-19T11:06:30.227Z,1017.19
2023-02-19T11:07:30.195Z,1017.18
2023-02-19T11:08:30.201Z,1017.18
2023-02-19T11:09:30.182Z,1017.16
2023-02-19T11:10:30.171Z,1017.18
2023-02-19T11:11:30.176Z,1017.21
2023-02-19T11:12:30.157Z,1017.21
2023-02-19T11:13:30.143Z,1017.23
2023-02-19T11:14:30.158Z,1017.22
2023-02-19T11:15:30.120Z,1017.18
2023-02-19T11:16:30.130Z,1017.23
2023-02-19T11:17:30.109Z,1017.23
2023-02-19T11:18:30.078Z,1017.18
2023-02-19T11:19:30.068Z,1017.19
2023-02-19T11:20:30.060Z,1017.21
2023-02-19T11:21:30.039Z,1017.21
2023-02-19T11:22:30.060Z,1017.22
2023-02-19T11:23:30.043Z,1017.18
2023-02-19T11:24:30.020Z,1017.21
2023-02-19T11:25:30.010Z,1017.20
2023-02-19T11:26:29.994Z,1017.18
2023-02-19T11:27:29.980Z,1017.21
2023-02-19T11:28:30.182Z,1017.18
2023-02-19T11:29:29.980Z,1017.22
2023-02-19T11:30:31.923Z,1017.27
2023-02-19T11:31:30.606Z,1017.27
2023-02-19T11:32:30.714Z,1017.21
2023-02-19T11:33:30.879Z,1017.24
2023-02-19T11:34:30.682Z,1017.18
2023-02-19T11:35:30.417Z,1017.20
2023-02-19T11:36:31.004Z,1017.19
2023-02-19T11:37:30.403Z,1017.20
2023-02-19T11:38:29.886Z,1017.20
2023-02-19T11:39:29.875Z,1017.16
2023-02-19T11:40:29.858Z,1017.14
2023-02-19T11:41:29.843Z,1017.15
2023-02-19T11:42:29.830Z,1017.13
2023-02-19T11:43:29.807Z,1017.14
2023-02-19T11:44:29.845Z,1017.15
2023-02-19T11:45:29.797Z,1017.17
2023-02-19T11:46:29.796Z,1017.15
2023-02-19T11:47:29.779Z,1017.20
2023-02-19T11:48:30.338Z,1017.15
2023-02-19T11:49:29.770Z,1017.13
2023-02-19T11:50:29.759Z,1017.02
2023-02-19T11:51:29.748Z,1017.10
2023-02-19T11:52:29.717Z,1017.08
2023-02-19T11:53:29.710Z,1017.04
2023-02-19T11:54:29.728Z,1017.02
2023-02-19T11:55:29.679Z,1017.06
2023-02-19T11:56:29.665Z,1017.04
2023-02-19T11:57:29.669Z,1017.09
2023-02-19T11:58:29.648Z,1017.10
2023-02-19T11:59:29.631Z,1017.10
2023-02-19T12:00:29.648Z,1017.13
2023-02-19T12:01:29.615Z,1017.10
2023-02-19T12:02:29.617Z,1017.09
2023-02-19T12:03:29.688Z,1017.14
2023-02-19T12:04:29.599Z,1017.12
2023-02-19T12:05:29.589Z,1017.16